Alaska Titan — WDE4789 — position and weather

sailwx.info

Track history (hours):
 
Tides and Currents Weather Stations Pressure Air Temp Water Temp Dewpoint Dewpoint Depression Visibility Wind Speed Wind Dir Waves Ship Positions

Alaska Titan

Owner: WESTERN TOWBOAT CO, Seattle, WA. More information available from US FCC via Universal Licensing System and Coast Guard Vessel Documentation Center.

Last reported at 2015-Jul-31 01:11 UTC. Time now 2015-Aug-03 04:38 UTC.
Position N 47°39' W 122°22'.

Length 40 m; draft 3 m.

Type: Tow > 200 m length. MMSI: 367357890.

Date/timePositionNaut miles runAvg speedWind from/ knotsBaromVisibWave heightAir tempDewpointWater temp
2015-Jul-31 01:11N 47°39' W 122°22'0 0.1
2015-Jul-31 01:08N 47°39' W 122°22'1 2.6
2015-Jul-31 00:33N 47°40' W 122°24'0 0.0
2015-Jul-31 00:33N 47°40' W 122°24'3 2.9
2015-Jul-30 23:33N 47°37' W 122°25'0 0.0
2015-Jul-30 23:33N 47°37' W 122°25'3 3.0
2015-Jul-30 22:33N 47°35' W 122°21'0 0.0
2015-Jul-30 22:33N 47°35' W 122°21'3 2.7
2015-Jul-30 21:33N 47°37' W 122°24'0 9.4
2015-Jul-30 21:33N 47°37' W 122°25'9 8.7
2015-Jul-30 20:33N 47°45' W 122°27'0 9.4
2015-Jul-30 20:32N 47°45' W 122°27'8 8.1
2015-Jul-30 19:33N 47°53' W 122°29'0 5.7
2015-Jul-30 19:32N 47°53' W 122°29'35 8.8
2015-Jul-30 15:33N 48°27' W 122°45'1313.1
2015-Jul-30 14:33N 48°40' W 122°44'1010.4
2015-Jul-30 13:33N 48°48' W 122°55'1111.0
2015-Jul-30 12:33N 48°54' W 123°08'1010.0
2015-Jul-30 11:33N 49°01' W 123°19'9 9.4
2015-Jul-30 10:33N 49°07' W 123°30'9 9.4
2015-Jul-30 09:33N 49°13' W 123°41'10 9.8
2015-Jul-30 08:33N 49°19' W 123°52'10 9.5
2015-Jul-30 07:33N 49°26' W 124°03'10 9.7
2015-Jul-30 06:33N 49°32' W 124°15'9 9.4
2015-Jul-30 05:33N 49°36' W 124°28'9 8.8
2015-Jul-30 04:33N 49°41' W 124°39'9 8.9
2015-Jul-30 03:33N 49°47' W 124°50'9 9.2
2015-Jul-30 02:33N 49°53' W 125°01'9 9.1
2015-Jul-30 01:31N 49°59' W 125°12'8 7.2
2015-Jul-30 00:23N 50°06' W 125°18'7 8.4
2015-Jul-29 23:33N 50°12' W 125°22'3 2.4
2015-Jul-29 22:23N 50°15' W 125°23'73 7.1
2015-Jul-29 12:09N 50°45' W 127°07'5 8.8
2015-Jul-29 11:33N 50°49' W 127°13'9 8.6
2015-Jul-29 10:33N 50°54' W 127°24'8 8.0
2015-Jul-29 09:33N 50°59' W 127°34'8 8.4
2015-Jul-29 08:33N 51°05' W 127°43'8 8.3
2015-Jul-29 07:33N 51°11' W 127°51'  
2015-Jul-26 12:27N 58°15' W 135°32'8 9.3
2015-Jul-26 11:33N 58°18' W 135°46'9 9.1
2015-Jul-26 10:32N 58°15' W 136°03'30 6.6
2015-Jul-26 06:00N 58°12' W 137°00'56 9.4 260 / 151014.010.8 14.4
2015-Jul-26 00:00N 58°30' W 138°42'50 8.4 300 / 151014.010.8 16.7
2015-Jul-25 18:00N 58°48' W 140°12'   240 / 121013.010.8 15.6
2015-Jul-22 12:00N 59°48' W 145°12'54 9.0 310 / 51009.110.8 14.0
2015-Jul-22 06:00N 59°24' W 143°36'52 8.7 290 / 151009.010.8 15.6
2015-Jul-22 00:00N 59°06' W 142°00'47 7.8 280 / 151010.310.8 14.8
2015-Jul-21 18:00N 58°48' W 140°36'59 9.8 290 / 161011.010.8 0.514.4
2015-Jul-21 12:00N 58°30' W 138°48'56 9.4 300 / 121012.0 1.1 14.7
2015-Jul-21 06:00N 58°12' W 137°06'35 7.9 290 / 81012.010.8 0.515.6
2015-Jul-21 01:33N 58°16' W 136°00'  
Track history (hours):
 
Tides and Currents Weather Stations Pressure Air Temp Water Temp Dewpoint Dewpoint Depression Visibility Wind Speed Wind Dir Waves Ship Positions

Alaska Titan

Owner: WESTERN TOWBOAT CO, Seattle, WA. More information available from US FCC via Universal Licensing System and Coast Guard Vessel Documentation Center.

Last reported at 2015-Jul-31 01:11 UTC. Time now 2015-Aug-03 04:38 UTC.
Position N 47°39' W 122°22'.

Length 40 m; draft 3 m.

Type: Tow > 200 m length. MMSI: 367357890.

Date/timePositionNaut miles runAvg speedWind from/ knotsBaromVisibWave heightAir tempDewpointWater temp
2015-Jul-31 01:11N 47°39' W 122°22'0 0.1
2015-Jul-31 01:08N 47°39' W 122°22'1 2.6
2015-Jul-31 00:33N 47°40' W 122°24'0 0.0
2015-Jul-31 00:33N 47°40' W 122°24'3 2.9
2015-Jul-30 23:33N 47°37' W 122°25'0 0.0
2015-Jul-30 23:33N 47°37' W 122°25'3 3.0
2015-Jul-30 22:33N 47°35' W 122°21'0 0.0
2015-Jul-30 22:33N 47°35' W 122°21'3 2.7
2015-Jul-30 21:33N 47°37' W 122°24'0 9.4
2015-Jul-30 21:33N 47°37' W 122°25'9 8.7
2015-Jul-30 20:33N 47°45' W 122°27'0 9.4
2015-Jul-30 20:32N 47°45' W 122°27'8 8.1
2015-Jul-30 19:33N 47°53' W 122°29'0 5.7
2015-Jul-30 19:32N 47°53' W 122°29'35 8.8
2015-Jul-30 15:33N 48°27' W 122°45'1313.1
2015-Jul-30 14:33N 48°40' W 122°44'1010.4
2015-Jul-30 13:33N 48°48' W 122°55'1111.0
2015-Jul-30 12:33N 48°54' W 123°08'1010.0
2015-Jul-30 11:33N 49°01' W 123°19'9 9.4
2015-Jul-30 10:33N 49°07' W 123°30'9 9.4
2015-Jul-30 09:33N 49°13' W 123°41'10 9.8
2015-Jul-30 08:33N 49°19' W 123°52'10 9.5
2015-Jul-30 07:33N 49°26' W 124°03'10 9.7
2015-Jul-30 06:33N 49°32' W 124°15'9 9.4
2015-Jul-30 05:33N 49°36' W 124°28'9 8.8
2015-Jul-30 04:33N 49°41' W 124°39'9 8.9
2015-Jul-30 03:33N 49°47' W 124°50'9 9.2
2015-Jul-30 02:33N 49°53' W 125°01'9 9.1
2015-Jul-30 01:31N 49°59' W 125°12'8 7.2
2015-Jul-30 00:23N 50°06' W 125°18'7 8.4
2015-Jul-29 23:33N 50°12' W 125°22'3 2.4
2015-Jul-29 22:23N 50°15' W 125°23'73 7.1
2015-Jul-29 12:09N 50°45' W 127°07'5 8.8
2015-Jul-29 11:33N 50°49' W 127°13'9 8.6
2015-Jul-29 10:33N 50°54' W 127°24'8 8.0
2015-Jul-29 09:33N 50°59' W 127°34'8 8.4
2015-Jul-29 08:33N 51°05' W 127°43'8 8.3
2015-Jul-29 07:33N 51°11' W 127°51'  
2015-Jul-26 12:27N 58°15' W 135°32'8 9.3
2015-Jul-26 11:33N 58°18' W 135°46'9 9.1
2015-Jul-26 10:32N 58°15' W 136°03'30 6.6
2015-Jul-26 06:00N 58°12' W 137°00'56 9.4 260 / 151014.010.8 14.4
2015-Jul-26 00:00N 58°30' W 138°42'50 8.4 300 / 151014.010.8 16.7
2015-Jul-25 18:00N 58°48' W 140°12'   240 / 121013.010.8 15.6
2015-Jul-22 12:00N 59°48' W 145°12'54 9.0 310 / 51009.110.8 14.0
2015-Jul-22 06:00N 59°24' W 143°36'52 8.7 290 / 151009.010.8 15.6
2015-Jul-22 00:00N 59°06' W 142°00'47 7.8 280 / 151010.310.8 14.8
2015-Jul-21 18:00N 58°48' W 140°36'59 9.8 290 / 161011.010.8 0.514.4
2015-Jul-21 12:00N 58°30' W 138°48'56 9.4 300 / 121012.0 1.1 14.7
2015-Jul-21 06:00N 58°12' W 137°06'35 7.9 290 / 81012.010.8 0.515.6
2015-Jul-21 01:33N 58°16' W 136°00'  

Dump ship's entire track history